Time;durP1;ratioP1;P1;durP2;ratioP2;P2;SDS_P1;SDS_P2;PMS_P1;PMS_P2;Temp;Humidity;BMP_temperature;BMP_pressure;BME280_temperature;BME280_humidity;BME280_pressure;Samples;Min_cycle;Max_cycle;Signal;HPM_P1;HPM_P2
2021/04/10 00:01:29;;;;;;;;;;;10.10;99.90;;;10.14;66.68;101191.53;5073220;28;20443;-70
2021/04/10 00:03:57;;;;;;;;;;;10.10;99.90;;;10.11;66.61;101186.25;5073085;28;19932;-70
2021/04/10 00:06:24;;;;;;;;;;;10.10;99.90;;;10.24;66.58;101198.63;5073135;28;19924;-70
2021/04/10 00:08:51;;;;;;;;;;;10.10;99.90;;;10.21;66.54;101195.97;5073271;28;19920;-70
2021/04/10 00:11:19;;;;;;;;;;;10.10;99.90;;;10.16;66.49;101200.38;5073314;28;19924;-70
2021/04/10 00:13:46;;;;;;;;;;;10.10;99.90;;;10.15;66.68;101201.22;5073090;28;20306;-70
2021/04/10 00:16:14;;;;;;;;;;;10.10;99.90;;;10.15;66.71;101201.22;5072945;28;19924;-70
2021/04/10 00:18:42;;;;;;;;;;;10.10;99.90;;;9.97;67.13;101194.97;5072896;28;19920;-70
2021/04/10 00:21:10;;;;;;;;;;;9.90;99.90;;;9.87;67.12;101169.41;5072984;28;19964;-70
2021/04/10 00:23:42;;;;;;;;;;;9.90;99.90;;;10.03;67.43;101205.56;5071761;28;20369;-70
2021/04/10 00:26:11;;;;;;;;;;;10.00;99.90;;;10.04;67.44;101201.19;5073088;28;19924;-70
2021/04/10 00:28:38;;;;;;;;;;;10.00;99.90;;;10.07;67.36;101200.28;5073021;28;19920;-70
2021/04/10 00:31:09;;;;;;;;;;;10.00;99.90;;;10.12;67.46;101203.88;5072858;28;20303;-70
2021/04/10 00:33:37;;;;;;;;;;;10.00;99.90;;;10.10;67.46;101210.91;5071707;28;19962;-70
2021/04/10 00:36:05;;;;;;;;;;;10.10;99.90;;;9.54;67.54;101119.09;5073073;28;20017;-70
2021/04/10 00:38:34;;;;;;;;;;;10.00;99.90;;;10.10;67.57;101213.56;5075614;28;19920;-70
2021/04/10 00:41:03;;;;;;;;;;;10.00;99.90;;;10.13;67.40;101210.91;5076907;28;20012;-70
2021/04/10 00:43:30;;;;;;;;;;;10.00;99.90;;;10.14;67.34;101221.50;5076820;28;20382;-70
2021/04/10 00:45:59;;;;;;;;;;;10.10;99.90;;;10.09;67.35;101209.09;5076793;28;19924;-70
2021/04/10 00:48:26;;;;;;;;;;;10.00;99.90;;;10.07;67.02;101213.50;5075636;28;19931;-70
2021/04/10 00:50:54;;;;;;;;;;;9.90;99.90;;;10.01;66.81;101207.34;5076704;28;19920;-70
2021/04/10 00:53:23;;;;;;;;;;;10.00;99.90;;;10.06;66.72;101210.00;5076670;28;20446;-71
2021/04/10 00:55:53;;;;;;;;;;;10.00;99.90;;;10.02;66.94;101208.22;5076666;28;19920;-70
2021/04/10 00:58:20;;;;;;;;;;;9.90;99.90;;;10.06;66.51;101223.22;5075389;28;19963;-70
2021/04/10 01:00:48;;;;;;;;;;;10.00;99.90;;;9.97;66.30;101220.50;5076673;28;19920;-70
2021/04/10 01:03:16;;;;;;;;;;;9.90;99.90;;;9.36;65.76;101121.69;5075229;28;20018;-70
2021/04/10 01:05:43;;;;;;;;;;;9.90;99.90;;;9.93;65.84;101224.91;5076549;28;19926;-70
2021/04/10 01:08:11;;;;;;;;;;;9.90;99.90;;;9.87;65.47;101221.38;5076426;28;19920;-70
2021/04/10 01:10:39;;;;;;;;;;;9.80;99.90;;;9.91;65.59;101216.09;5076194;28;19928;-70
2021/04/10 01:13:17;;;;;;;;;;;9.80;99.90;;;9.89;65.95;101211.69;5075259;28;19931;-70
2021/04/10 01:15:48;;;;;;;;;;;9.80;99.90;;;9.75;66.04;101202.84;5075069;28;19921;-70
2021/04/10 01:18:18;;;;;;;;;;;9.70;99.90;;;9.79;65.73;101200.19;5075037;28;19925;-70
2021/04/10 01:21:05;;;;;;;;;;;9.70;99.90;;;9.79;65.69;101197.53;5076251;28;20002;-70
2021/04/10 01:24:03;;;;;;;;;;;9.70;99.90;;;9.81;65.82;101206.38;5075077;28;20294;-70
2021/04/10 01:26:54;;;;;;;;;;;9.70;99.90;;;9.82;66.00;101210.78;5074912;28;19995;-70
2021/04/10 01:29:26;;;;;;;;;;;9.70;99.90;;;9.83;65.43;101196.69;5074873;28;19928;-70
2021/04/10 01:31:55;;;;;;;;;;;9.80;99.90;;;9.76;65.60;101202.84;5076020;28;19920;-70
2021/04/10 01:34:27;;;;;;;;;;;9.70;99.90;;;9.63;66.00;101192.22;5076036;28;19973;-70
2021/04/10 01:36:55;;;;;;;;;;;9.60;99.90;;;9.61;66.10;101192.22;5074761;28;19927;-70
2021/04/10 01:39:24;;;;;;;;;;;9.70;99.90;;;9.80;65.75;101198.44;5074562;28;19928;-70
2021/04/10 01:41:52;;;;;;;;;;;9.70;99.90;;;9.73;65.87;101200.19;5076361;28;20285;-70
2021/04/10 01:44:21;;;;;;;;;;;9.60;99.90;;;9.78;65.60;101203.72;5074744;28;19966;-70
2021/04/10 01:46:56;;;;;;;;;;;9.70;99.90;;;9.78;65.64;101206.38;5074458;28;19924;-70
2021/04/10 01:49:26;;;;;;;;;;;9.70;99.90;;;9.74;65.30;101204.59;5073237;28;19928;-70
2021/04/10 01:51:54;;;;;;;;;;;9.70;99.90;;;9.70;65.28;101200.16;5075600;28;20015;-70
2021/04/10 01:54:22;;;;;;;;;;;9.60;99.90;;;9.60;65.39;101179.84;5074135;28;19920;-70
2021/04/10 01:56:49;;;;;;;;;;;9.70;99.90;;;9.81;65.24;101203.72;5074437;28;19920;-70
2021/04/10 01:59:25;;;;;;;;;;;9.70;99.90;;;9.81;65.19;101198.44;5074109;28;20018;-70
2021/04/10 02:01:56;;;;;;;;;;;9.70;99.90;;;9.79;65.19;101201.97;5075549;28;19927;-70
2021/04/10 02:04:39;;;;;;;;;;;9.70;99.90;;;9.15;64.78;101087.28;5074308;28;19920;-70
2021/04/10 02:07:08;;;;;;;;;;;9.70;99.90;;;9.75;64.85;101201.09;5075301;28;19924;-70
2021/04/10 02:09:39;;;;;;;;;;;9.70;99.90;;;9.69;65.07;101194.88;5074182;28;19927;-70
2021/04/10 02:12:18;;;;;;;;;;;9.70;99.90;;;8.94;65.02;101066.06;5074077;28;19959;-70
2021/04/10 02:14:54;;;;;;;;;;;9.70;99.90;;;9.77;64.91;101211.66;5073939;28;20282;-70
2021/04/10 02:17:28;;;;;;;;;;;9.70;99.90;;;9.76;64.53;101220.44;5073950;28;19921;-70
2021/04/10 02:20:03;;;;;;;;;;;9.70;99.90;;;9.85;64.78;101221.34;5073729;28;19920;-70
2021/04/10 02:22:33;;;;;;;;;;;9.80;99.90;;;9.84;64.51;101224.88;5075171;28;19921;-71
2021/04/10 02:25:04;;;;;;;;;;;9.70;99.90;;;9.83;65.03;101225.75;5073799;28;19924;-70
2021/04/10 02:27:35;;;;;;;;;;;9.80;99.90;;;9.80;64.68;101228.38;5074942;28;19920;-70
2021/04/10 02:30:07;;;;;;;;;;;9.70;99.90;;;9.63;64.92;101193.09;5073608;28;20011;-70
2021/04/10 02:32:39;;;;;;;;;;;9.70;99.90;;;9.77;65.11;101220.47;5075065;28;19920;-70
2021/04/10 02:35:14;;;;;;;;;;;9.70;99.90;;;9.79;65.26;101223.97;5073559;28;19928;-70
2021/04/10 02:37:43;;;;;;;;;;;9.60;99.90;;;9.79;65.04;101213.41;5074955;28;19920;-71
2021/04/10 02:40:18;;;;;;;;;;;9.70;99.90;;;9.68;65.69;101224.78;5074711;28;20019;-70
2021/04/10 02:42:47;;;;;;;;;;;9.60;99.90;;;9.63;65.33;101213.34;5073615;28;19927;-70
2021/04/10 02:45:24;;;;;;;;;;;9.50;99.90;;;9.65;66.08;101215.13;5074773;28;20309;-70
2021/04/10 02:47:55;;;;;;;;;;;9.50;99.90;;;9.70;65.92;101220.41;5073416;28;19927;-70
2021/04/10 02:50:23;;;;;;;;;;;9.60;99.90;;;9.70;65.95;101218.66;5074805;28;20329;-70
2021/04/10 02:52:54;;;;;;;;;;;9.60;99.90;;;9.60;66.01;101235.31;5073270;28;20380;-70
2021/04/10 02:55:32;;;;;;;;;;;9.60;99.90;;;9.66;66.32;101215.97;5073248;28;20270;-70
2021/04/10 02:58:03;;;;;;;;;;;9.60;99.90;;;9.67;65.85;101218.66;5073142;28;19928;-70
2021/04/10 03:00:31;;;;;;;;;;;9.60;99.90;;;9.66;66.17;101219.50;5072611;28;19977;-70
2021/04/10 03:03:03;;;;;;;;;;;9.60;99.90;;;8.93;66.42;101098.56;5072956;28;20296;-70
2021/04/10 03:05:34;;;;;;;;;;;9.60;99.90;;;9.59;66.58;101220.38;5072782;28;19924;-70
2021/04/10 03:08:02;;;;;;;;;;;9.50;99.90;;;9.54;67.11;101219.44;5073207;28;19920;-70
2021/04/10 03:10:33;;;;;;;;;;;9.50;99.90;;;9.55;66.92;101215.94;5073045;28;20007;-70
2021/04/10 03:13:02;;;;;;;;;;;9.40;99.90;;;9.53;67.48;101217.69;5072870;28;19924;-70
2021/04/10 03:15:32;;;;;;;;;;;9.40;99.90;;;9.46;67.19;101215.91;5072790;28;20305;-70
2021/04/10 03:18:03;;;;;;;;;;;9.40;99.90;;;9.47;67.93;101216.75;5072683;28;20382;-70
2021/04/10 03:20:31;;;;;;;;;;;9.40;99.90;;;9.34;68.60;101201.72;5072806;28;19921;-70
2021/04/10 03:23:02;;;;;;;;;;;9.30;99.90;;;9.21;68.58;101211.34;5074137;28;20015;-70
2021/04/10 03:25:36;;;;;;;;;;;9.10;99.90;;;9.25;68.48;101215.78;5072625;28;19920;-70
2021/04/10 03:28:07;;;;;;;;;;;9.20;99.90;;;9.30;69.08;101214.03;5073712;28;19921;-70
2021/04/10 03:30:35;;;;;;;;;;;9.20;99.90;;;9.36;68.98;101213.19;5073476;28;20259;-70
2021/04/10 03:33:04;;;;;;;;;;;9.30;99.90;;;9.31;69.00;101215.78;5072603;28;19955;-70
2021/04/10 03:35:35;;;;;;;;;;;9.20;99.90;;;9.36;68.97;101221.09;5073691;28;19972;-70
2021/04/10 03:38:04;;;;;;;;;;;9.20;99.90;;;9.36;68.82;101224.63;5072437;28;19924;-70
2021/04/10 03:40:37;;;;;;;;;;;9.30;99.90;;;9.42;68.97;101223.78;5072337;28;20428;-70
2021/04/10 03:43:04;;;;;;;;;;;9.30;99.90;;;9.26;68.88;101200.81;5072122;28;19966;-70
2021/04/10 03:45:40;;;;;;;;;;;9.30;99.90;;;9.47;68.71;101227.31;5073598;28;19921;-70
2021/04/10 03:48:13;;;;;;;;;;;9.30;99.90;;;9.15;68.66;101179.63;5072293;28;19920;-70
2021/04/10 03:50:49;;;;;;;;;;;9.40;99.90;;;9.51;69.00;101230.00;5072038;28;19924;-70
2021/04/10 03:53:16;;;;;;;;;;;9.40;99.90;;;9.57;68.92;101234.44;5073269;28;20306;-70
2021/04/10 03:55:50;;;;;;;;;;;9.50;99.90;;;9.56;68.47;101230.03;5071896;28;19924;-70
2021/04/10 03:58:18;;;;;;;;;;;9.50;99.90;;;9.53;68.75;101236.16;5071960;28;19924;-70
2021/04/10 04:00:46;;;;;;;;;;;9.40;99.90;;;9.48;69.03;101232.63;5073369;28;19924;-70
2021/04/10 04:03:14;;;;;;;;;;;9.40;99.90;;;9.47;68.84;101222.94;5072000;28;20401;-70
2021/04/10 04:05:41;;;;;;;;;;;9.40;99.90;;;9.44;68.58;101217.66;5072111;28;19921;-70
2021/04/10 04:08:08;;;;;;;;;;;9.40;99.90;;;9.54;69.21;101229.16;5072012;28;19983;-70
2021/04/10 04:10:36;;;;;;;;;;;9.40;99.90;;;9.44;69.01;101228.22;5073390;28;19963;-70
2021/04/10 04:13:03;;;;;;;;;;;9.40;99.90;;;9.41;68.99;101222.88;5072546;28;19927;-70
2021/04/10 04:15:30;;;;;;;;;;;9.40;99.90;;;8.63;68.80;101085.22;5073208;28;19921;-71
2021/04/10 04:17:58;;;;;;;;;;;9.30;99.90;;;9.41;68.66;101224.63;5071860;28;20392;-70
2021/04/10 04:20:26;;;;;;;;;;;9.30;99.90;;;9.43;68.53;101225.53;5072944;28;19920;-70
2021/04/10 04:22:53;;;;;;;;;;;9.30;99.90;;;9.40;68.54;101231.69;5071976;28;19924;-70
2021/04/10 04:25:21;;;;;;;;;;;9.30;99.90;;;9.40;68.32;101228.16;5073120;28;20030;-70
2021/04/10 04:27:52;;;;;;;;;;;9.30;99.90;;;9.31;68.23;101223.72;5073096;28;19931;-70
2021/04/10 04:30:20;;;;;;;;;;;9.20;99.90;;;9.35;68.17;101233.41;5072878;28;20378;-70
2021/04/10 04:32:48;;;;;;;;;;;9.20;99.90;;;9.34;68.34;101233.41;5072980;28;20392;-70
2021/04/10 04:35:19;;;;;;;;;;;9.20;99.90;;;9.37;68.39;101225.53;5072839;28;19928;-70
2021/04/10 04:37:47;;;;;;;;;;;9.30;99.90;;;9.31;68.13;101221.06;5071750;28;20373;-70
2021/04/10 04:40:15;;;;;;;;;;;9.30;99.90;;;9.06;67.73;101206.84;5072838;28;20293;-69
2021/04/10 04:42:42;;;;;;;;;;;9.20;99.90;;;9.20;67.70;101237.69;5072797;28;19964;-70
2021/04/10 04:45:10;;;;;;;;;;;9.20;99.90;;;8.95;67.68;101197.97;5072795;28;19920;-70
2021/04/10 04:47:37;;;;;;;;;;;9.20;99.90;;;9.13;67.89;101236.81;5072698;28;20453;-70
2021/04/10 04:50:05;;;;;;;;;;;9.10;99.90;;;9.19;67.47;101226.28;5071725;28;19956;-70
2021/04/10 04:52:32;;;;;;;;;;;9.10;99.90;;;9.26;67.67;101227.19;5072965;28;19962;-70
2021/04/10 04:55:00;;;;;;;;;;;9.10;99.90;;;9.15;67.65;101229.78;5072736;28;20282;-70
2021/04/10 04:57:28;;;;;;;;;;;9.10;99.90;;;9.16;67.36;101231.53;5072869;28;19924;-70
2021/04/10 04:59:55;;;;;;;;;;;9.10;99.90;;;9.17;67.70;101233.31;5072901;28;19966;-70
2021/04/10 05:02:22;;;;;;;;;;;9.10;99.90;;;9.26;66.93;101235.09;5072539;28;19963;-70
2021/04/10 05:04:49;;;;;;;;;;;9.20;99.90;;;9.37;67.40;101241.38;5072815;28;19924;-70
2021/04/10 05:07:18;;;;;;;;;;;9.30;99.90;;;9.31;67.35;101238.69;5071326;28;19928;-70
2021/04/10 05:09:45;;;;;;;;;;;9.30;99.90;;;9.38;67.20;101249.28;5072615;28;19928;-70
2021/04/10 05:12:13;;;;;;;;;;;9.30;99.90;;;9.35;66.93;101248.41;5072723;28;19969;-70
2021/04/10 05:14:40;;;;;;;;;;;9.30;99.90;;;9.35;67.52;101243.97;5072495;28;19950;-70
2021/04/10 05:17:07;;;;;;;;;;;9.30;99.90;;;9.33;67.08;101243.06;5072874;28;19978;-70
2021/04/10 05:19:35;;;;;;;;;;;9.20;99.90;;;9.34;66.98;101241.31;5072568;28;19920;-70
2021/04/10 05:22:03;;;;;;;;;;;9.30;99.90;;;9.38;67.39;101249.28;5072396;28;20340;-70
2021/04/10 05:24:30;;;;;;;;;;;9.30;99.90;;;9.35;66.93;101248.41;5075935;28;19963;-70
2021/04/10 05:26:57;;;;;;;;;;;9.30;99.90;;;9.33;67.41;101251.00;5074797;28;19928;-70
2021/04/10 05:29:25;;;;;;;;;;;9.30;99.90;;;9.28;66.56;101239.53;5075756;28;19920;-70
2021/04/10 05:31:53;;;;;;;;;;;9.20;99.90;;;9.25;66.98;101242.16;5076069;28;19927;-70
2021/04/10 05:34:21;;;;;;;;;;;9.20;99.90;;;9.18;67.34;101242.97;5076149;28;19921;-70
2021/04/10 05:36:48;;;;;;;;;;;9.20;99.90;;;9.14;67.08;101246.47;5074610;28;20347;-70
2021/04/10 05:39:15;;;;;;;;;;;9.10;99.90;;;9.16;67.14;101247.38;5075858;28;20447;-70
2021/04/10 05:41:43;;;;;;;;;;;9.10;99.90;;;9.18;66.86;101250.00;5075968;28;19925;-70
2021/04/10 05:44:10;;;;;;;;;;;9.10;99.90;;;9.05;67.57;101252.56;5074689;28;19920;-70
2021/04/10 05:46:38;;;;;;;;;;;9.00;99.90;;;8.98;67.33;101229.63;5075836;28;20372;-70
2021/04/10 05:49:05;;;;;;;;;;;9.10;99.90;;;9.19;67.31;101252.69;5076222;28;19927;-70
2021/04/10 05:51:32;;;;;;;;;;;9.10;99.90;;;9.16;66.95;101255.28;5075690;28;19928;-69
2021/04/10 05:54:00;;;;;;;;;;;9.10;99.90;;;9.14;67.57;101254.38;5075570;28;20362;-70
2021/04/10 05:56:27;;;;;;;;;;;9.10;99.90;;;9.22;67.57;101263.25;5075449;28;19920;-70
2021/04/10 05:58:54;;;;;;;;;;;9.10;99.90;;;9.17;67.88;101267.63;5075814;28;19928;-70
2021/04/10 06:01:21;;;;;;;;;;;9.10;99.90;;;8.93;68.04;101256.84;5075374;28;19934;-70
2021/04/10 06:03:55;;;;;;;;;;;8.90;99.90;;;8.74;68.99;101273.38;5075524;28;20339;-70
2021/04/10 06:06:22;;;;;;;;;;;8.70;99.90;;;8.68;69.13;101246.97;5074088;28;19924;-70
2021/04/10 06:08:50;;;;;;;;;;;8.70;99.90;;;8.58;69.83;101271.47;5075195;28;20297;-71
2021/04/10 06:11:17;;;;;;;;;;;8.50;99.90;;;8.64;69.87;101260.97;5074806;28;19924;-70
2021/04/10 06:13:45;;;;;;;;;;;8.60;99.90;;;8.59;69.24;101267.97;5074947;28;19921;-70
2021/04/10 06:16:12;;;;;;;;;;;8.50;99.90;;;8.12;69.19;101239.34;5075178;28;20269;-70
2021/04/10 06:18:39;;;;;;;;;;;8.40;99.90;;;8.48;69.58;101251.19;5075023;28;19920;-71
2021/04/10 06:21:11;;;;;;;;;;;8.40;99.90;;;8.53;69.05;101279.34;5075081;28;19920;-70
2021/04/10 06:23:38;;;;;;;;;;;8.40;99.90;;;8.59;69.25;101271.50;5074955;28;20007;-71
2021/04/10 06:26:05;;;;;;;;;;;8.40;99.90;;;8.54;68.15;101269.66;5074894;28;19921;-71
2021/04/10 06:28:32;;;;;;;;;;;8.50;99.90;;;8.58;68.36;101268.81;5075039;28;20019;-70
2021/04/10 06:31:01;;;;;;;;;;;8.50;99.90;;;8.56;68.22;101257.38;5074647;28;20319;-70
2021/04/10 06:33:29;;;;;;;;;;;8.50;99.90;;;8.53;68.55;101267.91;5074831;28;19920;-70
2021/04/10 06:35:56;;;;;;;;;;;8.40;99.90;;;8.57;67.92;101278.50;5073677;28;19966;-70
2021/04/10 06:38:24;;;;;;;;;;;8.50;99.90;;;8.41;67.99;101273.94;5074683;28;20027;-70
2021/04/10 06:40:51;;;;;;;;;;;8.40;99.90;;;8.45;68.07;101288.91;5075023;28;19921;-70
2021/04/10 06:43:19;;;;;;;;;;;8.40;99.90;;;8.36;68.01;101277.41;5074623;28;19993;-70
2021/04/10 06:45:46;;;;;;;;;;;8.30;99.90;;;8.42;68.36;101291.50;5074273;28;19924;-70
2021/04/10 06:48:14;;;;;;;;;;;8.40;99.90;;;8.12;68.60;101286.75;5072943;28;19955;-70
2021/04/10 06:50:42;;;;;;;;;;;8.10;99.90;;;8.24;69.12;101278.09;5074377;28;19920;-70
2021/04/10 06:53:14;;;;;;;;;;;8.10;99.90;;;8.32;69.37;101280.88;5074555;28;19993;-70
2021/04/10 06:55:46;;;;;;;;;;;8.20;99.90;;;8.44;68.82;101291.56;5073182;28;20377;-70
2021/04/10 06:58:18;;;;;;;;;;;8.30;99.90;;;8.59;68.27;101291.69;5074085;28;19920;-71
2021/04/10 07:00:45;;;;;;;;;;;8.50;99.90;;;8.53;68.35;101299.53;5074341;28;19924;-70
2021/04/10 07:03:13;;;;;;;;;;;8.50;99.90;;;8.61;67.85;101303.16;5074102;28;19966;-70
2021/04/10 07:05:40;;;;;;;;;;;8.50;99.90;;;8.66;67.92;101311.97;5074089;28;19924;-70
2021/04/10 07:08:07;;;;;;;;;;;8.50;99.90;;;8.78;67.72;101320.91;5074231;28;19932;-70
2021/04/10 07:10:35;;;;;;;;;;;8.60;99.90;;;8.57;67.55;101283.78;5074039;28;20339;-70
2021/04/10 07:13:03;;;;;;;;;;;8.70;99.90;;;8.59;67.20;101292.59;5072853;28;19983;-70
2021/04/10 07:15:31;;;;;;;;;;;8.70;99.90;;;8.88;67.00;101319.25;5073792;28;20010;-70
2021/04/10 07:18:08;;;;;;;;;;;8.80;99.90;;;8.82;67.15;101321.81;5074115;28;19925;-70
2021/04/10 07:20:36;;;;;;;;;;;8.70;99.90;;;8.66;66.61;101288.25;5073748;28;19943;-70
2021/04/10 07:23:07;;;;;;;;;;;8.70;99.90;;;8.46;68.25;101334.63;5072770;28;20007;-70
2021/04/10 07:25:36;;;;;;;;;;;8.50;99.90;;;8.41;67.61;101294.13;5073845;28;19920;-70
2021/04/10 07:28:26;;;;;;;;;;;8.50;99.90;;;8.68;68.24;101310.25;5072350;28;20014;-71
2021/04/10 07:30:59;;;;;;;;;;;8.60;99.90;;;8.20;67.54;101206.06;5073549;28;19927;-70
2021/04/10 07:33:27;;;;;;;;;;;8.70;99.90;;;8.48;68.16;101309.16;5073989;28;19924;-70
2021/04/10 07:35:55;;;;;;;;;;;8.50;99.90;;;8.49;67.50;101293.34;5073485;28;19927;-70
2021/04/10 07:38:29;;;;;;;;;;;8.50;99.90;;;8.54;67.54;101303.94;5073323;28;19920;-70
2021/04/10 07:40:58;;;;;;;;;;;8.50;99.90;;;8.34;68.22;101330.09;5071648;28;20293;-70
2021/04/10 07:43:31;;;;;;;;;;;8.30;99.90;;;8.14;68.83;101321.91;5072842;28;19970;-70
2021/04/10 07:46:16;;;;;;;;;;;8.10;99.90;;;8.43;68.00;101330.19;5073333;28;19925;-70
2021/04/10 07:49:03;;;;;;;;;;;8.30;99.90;;;8.53;67.50;101341.72;5073410;28;19928;-70
2021/04/10 07:51:34;;;;;;;;;;;8.40;99.90;;;8.42;66.89;101344.22;5073473;28;19927;-70
2021/04/10 07:54:02;;;;;;;;;;;8.40;99.90;;;8.36;67.67;101333.63;5071910;28;19920;-70
2021/04/10 07:56:57;;;;;;;;;;;8.30;99.90;;;8.41;67.38;101323.13;5073184;28;19928;-70
2021/04/10 07:59:28;;;;;;;;;;;8.40;99.90;;;8.49;67.00;101324.09;5073126;28;19931;-70
2021/04/10 08:02:08;;;;;;;;;;;8.40;99.90;;;8.61;67.27;101333.06;5072183;28;19974;-70
2021/04/10 08:04:37;;;;;;;;;;;8.50;99.90;;;8.67;67.26;101319.03;5073108;28;19981;-70
2021/04/10 08:07:04;;;;;;;;;;;8.60;99.90;;;8.77;67.21;101331.44;5071374;28;19920;-70
2021/04/10 08:09:34;;;;;;;;;;;8.70;99.90;;;8.68;67.24;101326.97;5072826;28;19947;-70
2021/04/10 08:12:03;;;;;;;;;;;8.70;99.90;;;8.62;66.76;101318.97;5072934;28;20002;-70
2021/04/10 08:14:42;;;;;;;;;;;8.60;99.90;;;8.50;67.26;101339.03;5073530;28;19921;-69
2021/04/10 08:17:09;;;;;;;;;;;8.50;99.90;;;8.66;67.33;101333.97;5071470;28;20352;-70
2021/04/10 08:19:37;;;;;;;;;;;8.60;99.90;;;8.71;67.05;101332.25;5073100;28;20328;-70
2021/04/10 08:22:06;;;;;;;;;;;8.60;99.90;;;8.76;67.57;101330.56;5071484;28;19921;-70
2021/04/10 08:24:36;;;;;;;;;;;8.70;99.90;;;8.84;67.27;101328.00;5071385;28;20340;-70
2021/04/10 08:27:06;;;;;;;;;;;8.70;99.90;;;8.68;67.07;101299.69;5072918;28;19928;-70
2021/04/10 08:29:36;;;;;;;;;;;8.80;99.90;;;8.93;66.75;101339.53;5073152;28;19920;-70
2021/04/10 08:32:07;;;;;;;;;;;8.90;99.90;;;8.96;66.73;101328.97;5072816;28;19924;-70
2021/04/10 08:34:34;;;;;;;;;;;8.90;99.90;;;8.83;66.76;101337.66;5073008;28;19927;-70
2021/04/10 08:37:04;;;;;;;;;;;8.80;99.90;;;8.71;67.51;101344.56;5072463;28;19920;-70
2021/04/10 08:39:36;;;;;;;;;;;8.70;99.90;;;8.90;67.21;101335.97;5072712;28;19920;-70
2021/04/10 08:42:05;;;;;;;;;;;8.80;99.90;;;9.04;67.07;101335.22;5072819;28;19922;-70
2021/04/10 08:44:36;;;;;;;;;;;8.90;99.90;;;9.05;66.84;101318.53;5072564;28;19927;-70
2021/04/10 08:47:04;;;;;;;;;;;9.00;99.90;;;9.20;66.73;101330.06;5071260;28;19924;-70
2021/04/10 08:49:34;;;;;;;;;;;9.10;99.90;;;9.02;66.05;101322.88;5072404;28;20011;-70
2021/04/10 08:52:06;;;;;;;;;;;9.00;99.90;;;9.11;65.58;101328.25;5072574;28;20453;-71
2021/04/10 08:54:35;;;;;;;;;;;9.10;99.90;;;9.08;66.24;101317.66;5072980;28;20397;-70
2021/04/10 08:57:09;;;;;;;;;;;9.00;99.90;;;8.97;65.69;101298.22;5072590;28;19921;-70
2021/04/10 08:59:41;;;;;;;;;;;9.00;99.90;;;9.12;65.89;101327.38;5076454;28;19928;-70
2021/04/10 09:02:16;;;;;;;;;;;9.10;99.90;;;9.10;66.08;101331.75;5076422;28;19924;-70
2021/04/10 09:04:55;;;;;;;;;;;9.00;99.90;;;9.19;65.55;101321.28;5076434;28;20007;-70
2021/04/10 09:08:03;;;;;;;;;;;9.10;99.90;;;9.20;64.92;101315.13;5075158;28;20419;-70
2021/04/10 09:10:58;;;;;;;;;;;9.10;99.90;;;9.22;64.69;101333.59;5076090;28;19920;-70
2021/04/10 09:13:40;;;;;;;;;;;9.10;99.90;;;9.17;64.80;101320.41;5052412;28;19920;-70
2021/04/10 09:16:43;;;;;;;;;;;9.10;99.90;;;9.23;64.92;101309.91;5076163;28;19920;-70
2021/04/10 09:19:17;;;;;;;;;;;9.10;99.90;;;9.18;64.45;101318.63;5071498;28;19942;-70
2021/04/10 09:21:49;;;;;;;;;;;9.10;99.90;;;9.28;64.82;101317.81;5075764;28;19928;-71
2021/04/10 09:24:29;;;;;;;;;;;9.20;99.90;;;9.04;65.23;101305.31;5075740;28;20378;-70
2021/04/10 09:27:02;;;;;;;;;;;9.20;99.90;;;8.61;64.51;101201.22;5074762;28;20370;-70
2021/04/10 09:29:31;;;;;;;;;;;9.20;99.90;;;8.78;64.14;101238.25;5074836;28;19920;-70
2021/04/10 09:32:00;;;;;;;;;;;9.20;99.90;;;9.21;64.01;101287.88;5075765;28;19955;-70
2021/04/10 09:34:55;;;;;;;;;;;9.30;99.90;;;9.39;63.47;101324.09;5075945;28;19931;-69
2021/04/10 09:37:59;;;;;;;;;;;9.30;99.90;;;9.29;63.36;101315.19;5075566;28;19930;-70
2021/04/10 09:40:47;;;;;;;;;;;9.30;99.90;;;9.13;64.00;101329.16;5074784;28;20007;-71
2021/04/10 09:43:19;;;;;;;;;;;9.10;99.90;;;9.21;63.20;101327.47;5074637;28;20278;-70
2021/04/10 09:45:48;;;;;;;;;;;9.20;99.90;;;8.72;65.37;101338.41;5075476;28;19920;-70
2021/04/10 09:48:30;;;;;;;;;;;8.70;99.90;;;8.89;65.41;101335.09;5075223;28;20308;-70
2021/04/10 09:51:13;;;;;;;;;;;8.80;99.90;;;8.88;66.24;101335.94;5075597;28;19928;-70
2021/04/10 09:53:42;;;;;;;;;;;8.80;99.90;;;9.12;64.75;101324.72;5075366;28;19927;-70
2021/04/10 09:56:12;;;;;;;;;;;8.90;99.90;;;8.93;64.88;101306.97;5075157;28;19974;-70
2021/04/10 09:58:51;;;;;;;;;;;9.00;99.90;;;8.62;66.17;101326.88;5075455;28;19921;-70
2021/04/10 10:01:21;;;;;;;;;;;8.70;99.90;;;9.06;67.10;101329.94;5075710;28;19946;-70
2021/04/10 10:03:49;;;;;;;;;;;8.90;99.90;;;9.32;66.68;101328.44;5075673;28;19927;-70
2021/04/10 10:06:22;;;;;;;;;;;9.10;99.90;;;9.19;67.10;101321.28;5075259;28;19922;-70
2021/04/10 10:08:50;;;;;;;;;;;9.10;99.90;;;9.26;66.34;101332.75;5074770;28;20027;-70
2021/04/10 10:11:18;;;;;;;;;;;9.20;99.90;;;9.38;66.96;101319.66;5073718;28;20356;-70
2021/04/10 10:13:46;;;;;;;;;;;9.30;99.90;;;9.36;66.43;101302.94;5075298;28;20309;-70
2021/04/10 10:16:13;;;;;;;;;;;9.30;99.90;;;9.63;66.29;101317.22;5073673;28;19927;-70
2021/04/10 10:18:42;;;;;;;;;;;9.50;99.90;;;9.54;66.44;101292.53;5075175;28;19978;-70
2021/04/10 10:21:11;;;;;;;;;;;9.50;99.90;;;9.29;66.17;101274.75;5075044;28;19921;-70
2021/04/10 10:23:41;;;;;;;;;;;9.50;99.90;;;9.61;65.78;101300.47;5073819;28;19950;-70
2021/04/10 10:26:10;;;;;;;;;;;9.50;99.90;;;9.57;66.54;101276.69;5075353;28;19942;-70
2021/04/10 10:28:40;;;;;;;;;;;9.50;99.90;;;9.61;66.04;101279.34;5074852;28;19927;-70
2021/04/10 10:31:09;;;;;;;;;;;9.60;99.90;;;9.64;66.65;101279.34;5074765;28;19931;-70
2021/04/10 10:33:37;;;;;;;;;;;9.60;99.90;;;9.80;65.86;101278.59;5074832;28;19924;-70
2021/04/10 10:36:05;;;;;;;;;;;9.70;99.90;;;9.91;65.91;101274.22;5074751;28;19928;-70
2021/04/10 10:38:36;;;;;;;;;;;9.80;99.90;;;9.96;66.26;101266.31;5074907;28;19921;-70
2021/04/10 10:41:05;;;;;;;;;;;9.90;99.90;;;9.92;65.00;101260.16;5074996;28;20288;-70
2021/04/10 10:43:33;;;;;;;;;;;9.90;99.90;;;9.88;64.67;101254.84;5074494;28;20400;-71
2021/04/10 10:46:01;;;;;;;;;;;9.90;99.90;;;9.92;64.59;101280.41;5074576;28;20297;-70
2021/04/10 10:48:31;;;;;;;;;;;9.90;99.90;;;9.17;66.33;101212.19;5074475;28;19928;-70
2021/04/10 10:51:13;;;;;;;;;;;9.50;99.90;;;9.47;66.74;101270.47;5073520;28;19921;-70
2021/04/10 10:53:42;;;;;;;;;;;9.40;99.90;;;9.61;66.11;101254.69;5073133;28;19936;-70
2021/04/10 10:56:12;;;;;;;;;;;9.50;99.90;;;9.63;65.77;101258.22;5074557;28;19925;-70
2021/04/10 10:58:47;;;;;;;;;;;9.50;99.90;;;9.59;65.35;101245.88;5074212;28;19924;-70
2021/04/10 11:01:20;;;;;;;;;;;9.60;99.90;;;9.76;65.98;101252.13;5074304;28;20370;-70
2021/04/10 11:03:51;;;;;;;;;;;9.60;99.90;;;9.75;65.37;101255.66;5073110;28;20362;-70
2021/04/10 11:06:20;;;;;;;;;;;9.70;99.90;;;9.69;65.76;101255.63;5074300;28;19924;-70
2021/04/10 11:08:47;;;;;;;;;;;9.60;99.90;;;9.63;65.72;101245.91;5074192;28;19927;-70
2021/04/10 11:11:16;;;;;;;;;;;9.60;99.90;;;9.62;65.60;101252.06;5074065;28;19931;-70
2021/04/10 11:13:45;;;;;;;;;;;9.60;99.90;;;9.52;66.31;101220.31;5074269;28;19960;-70
2021/04/10 11:16:13;;;;;;;;;;;9.50;99.90;;;9.56;66.32;101222.13;5072761;28;20377;-70
2021/04/10 11:18:40;;;;;;;;;;;9.50;99.90;;;9.42;66.55;101224.69;5074130;28;19920;-71
2021/04/10 11:21:12;;;;;;;;;;;9.40;99.90;;;9.46;67.01;101237.03;5073472;28;19920;-70
2021/04/10 11:24:13;;;;;;;;;;;9.40;99.90;;;9.36;67.46;101232.56;5073812;28;19927;-70
2021/04/10 11:26:44;;;;;;;;;;;9.30;99.90;;;9.37;67.76;101215.81;5073827;28;19924;-71
2021/04/10 11:29:24;;;;;;;;;;;9.30;99.90;;;9.29;67.39;101219.31;5073785;28;19924;-70
2021/04/10 11:32:19;;;;;;;;;;;9.20;99.90;;;9.32;67.93;101217.56;5073568;28;20354;-70
2021/04/10 11:34:58;;;;;;;;;;;9.30;99.90;;;9.30;67.92;101214.03;5072611;28;19924;-70
2021/04/10 11:37:46;;;;;;;;;;;9.20;99.90;;;9.41;69.50;101217.63;5072366;28;19921;-70
2021/04/10 11:40:28;;;;;;;;;;;9.30;99.90;;;9.60;68.91;101213.34;5073816;28;19924;-70
2021/04/10 11:42:58;;;;;;;;;;;9.40;99.90;;;9.48;68.96;101205.34;5073472;28;19925;-70